Dennis Ross — WDB7118 — position and weather

sailwx.info

Track history (hours):
 
Tides and Currents Weather Stations Pressure Air Temp Water Temp Dewpoint Dewpoint Depression Visibility Wind Speed Wind Dir Waves Ship Positions

Dennis Ross

Owner: Magnolia Marine Transport Co, Vicksburg, MS. More information available from US FCC via Universal Licensing System and Coast Guard Vessel Documentation Center.

Last reported at 2018-Jan-23 08:10 UTC. Time now 2018-Jan-24 05:50 UTC.
Position N 29°50' W 091°58'.

Length 62 m; draft 2.8 m.

Type: Towing. MMSI: 366936680.

Date/timePositionNaut miles runAvg speedWind from/ knotsBaromVisibWave heightAir tempDewpointWater temp
2018-Jan-23 08:10N 29°50' W 091°58'1 5.5
2018-Jan-23 07:57N 29°50' W 091°59'3 5.8
2018-Jan-23 07:30N 29°49' W 092°02'3 5.4
2018-Jan-23 07:00N 29°48' W 092°05'3 5.6
2018-Jan-23 06:30N 29°47' W 092°08'2 4.2
2018-Jan-23 05:56N 29°47' W 092°11'2 3.5
2018-Jan-23 05:30N 29°47' W 092°13'1 2.9
2018-Jan-23 05:00N 29°48' W 092°14'1 2.1
2018-Jan-23 04:30N 29°48' W 092°15'0 0.0
2018-Jan-23 04:00N 29°48' W 092°15'0 0.0
2018-Jan-23 03:30N 29°48' W 092°15'1 2.3
2018-Jan-23 03:00N 29°49' W 092°16'2 2.8
2018-Jan-23 02:25N 29°50' W 092°18'0 0.2
2018-Jan-23 01:50N 29°50' W 092°18'0 0.9
2018-Jan-23 01:27N 29°50' W 092°18'37 4.6
2018-Jan-22 17:34N 29°56' W 092°60'0 5.0
2018-Jan-22 17:29N 29°56' W 093°00'2 5.1
2018-Jan-22 17:00N 29°56' W 093°03'3 5.1
2018-Jan-22 16:30N 29°56' W 093°06'3 5.0
2018-Jan-22 16:00N 29°56' W 093°09'2 4.6
2018-Jan-22 15:30N 29°57' W 093°11'2 4.9
2018-Jan-22 15:00N 29°59' W 093°13'2 4.4
2018-Jan-22 14:30N 30°01' W 093°14'2 4.2
2018-Jan-22 14:00N 30°03' W 093°16'2 4.2
2018-Jan-22 13:30N 30°05' W 093°17'1 2.5
2018-Jan-22 13:00N 30°05' W 093°18'1 1.6
2018-Jan-22 12:30N 30°06' W 093°18'1 2.9
2018-Jan-22 12:00N 30°05' W 093°20'2 4.4
2018-Jan-22 11:30N 30°04' W 093°21'2 4.8
2018-Jan-22 11:00N 30°04' W 093°24'2 4.7
2018-Jan-22 10:30N 30°04' W 093°27'2 4.5
2018-Jan-22 10:00N 30°04' W 093°29'0 0.2
2018-Jan-22 09:28N 30°04' W 093°30'0 0.0
2018-Jan-22 08:57N 30°04' W 093°30'0 0.0
2018-Jan-22 08:30N 30°04' W 093°30'0 0.0
2018-Jan-22 08:00N 30°04' W 093°30'0 0.0
2018-Jan-22 07:30N 30°04' W 093°30'0 0.0
2018-Jan-22 07:00N 30°04' W 093°30'0 0.0
2018-Jan-22 06:30N 30°04' W 093°30'0 0.0
2018-Jan-22 06:00N 30°04' W 093°30'0 0.0
2018-Jan-22 05:30N 30°04' W 093°30'0 0.0
2018-Jan-22 04:59N 30°04' W 093°30'0 0.0
2018-Jan-22 04:30N 30°04' W 093°30'0 0.0
2018-Jan-22 04:00N 30°04' W 093°30'0 0.0
2018-Jan-22 03:30N 30°04' W 093°30'0 0.1
2018-Jan-22 03:00N 30°04' W 093°30'1 1.7
2018-Jan-22 02:30N 30°04' W 093°31'2 4.5
2018-Jan-22 02:00N 30°04' W 093°33'77 2.5
2018-Jan-20 19:36N 29°31' W 094°53'1 9.1
2018-Jan-20 19:30N 29°32' W 094°53'4 8.8
2018-Jan-20 19:00N 29°35' W 094°56'3 7.0
2018-Jan-20 18:30N 29°38' W 094°58'  
Track history (hours):
 
Tides and Currents Weather Stations Pressure Air Temp Water Temp Dewpoint Dewpoint Depression Visibility Wind Speed Wind Dir Waves Ship Positions

Dennis Ross

Owner: Magnolia Marine Transport Co, Vicksburg, MS. More information available from US FCC via Universal Licensing System and Coast Guard Vessel Documentation Center.

Last reported at 2018-Jan-23 08:10 UTC. Time now 2018-Jan-24 05:50 UTC.
Position N 29°50' W 091°58'.

Length 62 m; draft 2.8 m.

Type: Towing. MMSI: 366936680.

Date/timePositionNaut miles runAvg speedWind from/ knotsBaromVisibWave heightAir tempDewpointWater temp
2018-Jan-23 08:10N 29°50' W 091°58'1 5.5
2018-Jan-23 07:57N 29°50' W 091°59'3 5.8
2018-Jan-23 07:30N 29°49' W 092°02'3 5.4
2018-Jan-23 07:00N 29°48' W 092°05'3 5.6
2018-Jan-23 06:30N 29°47' W 092°08'2 4.2
2018-Jan-23 05:56N 29°47' W 092°11'2 3.5
2018-Jan-23 05:30N 29°47' W 092°13'1 2.9
2018-Jan-23 05:00N 29°48' W 092°14'1 2.1
2018-Jan-23 04:30N 29°48' W 092°15'0 0.0
2018-Jan-23 04:00N 29°48' W 092°15'0 0.0
2018-Jan-23 03:30N 29°48' W 092°15'1 2.3
2018-Jan-23 03:00N 29°49' W 092°16'2 2.8
2018-Jan-23 02:25N 29°50' W 092°18'0 0.2
2018-Jan-23 01:50N 29°50' W 092°18'0 0.9
2018-Jan-23 01:27N 29°50' W 092°18'37 4.6
2018-Jan-22 17:34N 29°56' W 092°60'0 5.0
2018-Jan-22 17:29N 29°56' W 093°00'2 5.1
2018-Jan-22 17:00N 29°56' W 093°03'3 5.1
2018-Jan-22 16:30N 29°56' W 093°06'3 5.0
2018-Jan-22 16:00N 29°56' W 093°09'2 4.6
2018-Jan-22 15:30N 29°57' W 093°11'2 4.9
2018-Jan-22 15:00N 29°59' W 093°13'2 4.4
2018-Jan-22 14:30N 30°01' W 093°14'2 4.2
2018-Jan-22 14:00N 30°03' W 093°16'2 4.2
2018-Jan-22 13:30N 30°05' W 093°17'1 2.5
2018-Jan-22 13:00N 30°05' W 093°18'1 1.6
2018-Jan-22 12:30N 30°06' W 093°18'1 2.9
2018-Jan-22 12:00N 30°05' W 093°20'2 4.4
2018-Jan-22 11:30N 30°04' W 093°21'2 4.8
2018-Jan-22 11:00N 30°04' W 093°24'2 4.7
2018-Jan-22 10:30N 30°04' W 093°27'2 4.5
2018-Jan-22 10:00N 30°04' W 093°29'0 0.2
2018-Jan-22 09:28N 30°04' W 093°30'0 0.0
2018-Jan-22 08:57N 30°04' W 093°30'0 0.0
2018-Jan-22 08:30N 30°04' W 093°30'0 0.0
2018-Jan-22 08:00N 30°04' W 093°30'0 0.0
2018-Jan-22 07:30N 30°04' W 093°30'0 0.0
2018-Jan-22 07:00N 30°04' W 093°30'0 0.0
2018-Jan-22 06:30N 30°04' W 093°30'0 0.0
2018-Jan-22 06:00N 30°04' W 093°30'0 0.0
2018-Jan-22 05:30N 30°04' W 093°30'0 0.0
2018-Jan-22 04:59N 30°04' W 093°30'0 0.0
2018-Jan-22 04:30N 30°04' W 093°30'0 0.0
2018-Jan-22 04:00N 30°04' W 093°30'0 0.0
2018-Jan-22 03:30N 30°04' W 093°30'0 0.1
2018-Jan-22 03:00N 30°04' W 093°30'1 1.7
2018-Jan-22 02:30N 30°04' W 093°31'2 4.5
2018-Jan-22 02:00N 30°04' W 093°33'77 2.5
2018-Jan-20 19:36N 29°31' W 094°53'1 9.1
2018-Jan-20 19:30N 29°32' W 094°53'4 8.8
2018-Jan-20 19:00N 29°35' W 094°56'3 7.0
2018-Jan-20 18:30N 29°38' W 094°58'  

Dump ship's entire track history